Terminal Aerodrome Forecast
Issued by NWS

Home | Current Version | Previous Version | Text Only | Print | Product List | Glossary Off
Versions: 1 2 3 4 5 6 7 8 9 10 11 12 13 14 15

000
FTUS43 KUNR 221120
TAFGCC
TAF
KGCC 221120Z 2212/2312 16010KT P6SM SCT150
     FM221500 19015G25KT P6SM BKN100
     FM230000 21012KT P6SM BKN100
     FM230900 30017KT P6SM SKC=

USA.gov is the U.S. government's official web portal to all federal, state and local government web resources and services.